Private Wetterstation Wechselburg
Wetterdaten: Donnerstag, 16.06.2016
Datum Zeit Temp. +2m Bodentemp. Temp.+5cm Temp. Wind Windchill X Diff Temp. Feuchte +2m Feuchte +5cm Sonnenschein Luftdruck Regen Wind Richtung Richtung Sonnenschein Taupunkt Windchill Windben
16.06.2016 00:00 10,9 C 22,9 C 12,6 C 11,1 C 11,1 C 0,2 C 85 % 88 % 0 % 1002,6 hPa 0,0 l/m 0,0 km/h (0 Bft) O-NO 67 0 min 8,5 C 11,1 C 0,0 km/h (0 Bft)
16.06.2016 00:10 10,8 C 22,9 C 12,6 C 11,0 C 11,0 C 0,2 C 85 % 88 % 0 % 1002,4 hPa 0,0 l/m 0,0 km/h (0 Bft) O-SO 112 0 min 8,4 C 11,0 C 0,0 km/h (0 Bft)
16.06.2016 00:15 10,9 C 22,9 C 12,7 C 10,9 C 10,8 C 0,0 C 85 % 88 % 0 % 1002,4 hPa 0,0 l/m 0,0 km/h (0 Bft) O-SO 112 0 min 8,5 C 10,8 C 0,0 km/h (0 Bft)
16.06.2016 00:20 10,9 C 23,0 C 12,5 C 10,9 C 10,9 C 0,0 C 85 % 88 % 0 % 1002,4 hPa 0,0 l/m 0,0 km/h (0 Bft) NO 45 0 min 8,5 C 10,9 C 0,0 km/h (0 Bft)
16.06.2016 00:25 10,7 C 23,0 C 12,5 C 10,8 C 10,8 C 0,1 C 85 % 88 % 0 % 1002,2 hPa 0,0 l/m 0,0 km/h (0 Bft) NO 45 0 min 8,3 C 10,8 C 0,0 km/h (0 Bft)
16.06.2016 00:30 10,7 C 23,0 C 12,4 C 10,7 C 10,6 C 0,0 C 85 % 88 % 0 % 1002,2 hPa 0,0 l/m 0,0 km/h (0 Bft) NO 45 0 min 8,3 C 10,6 C 0,0 km/h (0 Bft)
16.06.2016 00:35 10,6 C 22,9 C 12,2 C 10,6 C 10,6 C 0,0 C 85 % 88 % 0 % 1002,2 hPa 0,0 l/m 0,0 km/h (0 Bft) NO 45 0 min 8,2 C 10,6 C 0,0 km/h (0 Bft)
16.06.2016 00:51 10,3 C 22,9 C 12,0 C 10,3 C 10,3 C 0,0 C 86 % 88 % 0 % 1002,1 hPa 0,0 l/m 0,0 km/h (0 Bft) N 0 0 min 8,1 C 10,3 C 0,0 km/h (0 Bft)
16.06.2016 01:00 10,3 C 22,9 C 12,0 C 10,4 C 10,4 C 0,1 C 86 % 89 % 0 % 1002,1 hPa 0,0 l/m 0,0 km/h (0 Bft) O-NO 67 0 min 8,1 C 10,4 C 0,0 km/h (0 Bft)
16.06.2016 01:05 10,3 C 22,9 C 12,0 C 10,4 C 10,4 C 0,1 C 86 % 89 % 0 % 1002,6 hPa 0,0 l/m 0,0 km/h (0 Bft) O-NO 67 0 min 8,1 C 10,4 C 0,0 km/h (0 Bft)
16.06.2016 01:10 10,3 C 22,9 C 12,0 C 10,3 C 10,3 C 0,0 C 86 % 89 % 0 % 1002,6 hPa 0,0 l/m 0,0 km/h (0 Bft) O-NO 67 0 min 8,1 C 10,3 C 0,0 km/h (0 Bft)
16.06.2016 01:15 10,1 C 22,9 C 11,9 C 10,3 C 10,3 C 0,2 C 86 % 89 % 0 % 1002,6 hPa 0,0 l/m 0,0 km/h (0 Bft) O-NO 67 0 min 7,9 C 10,3 C 0,0 km/h (0 Bft)
16.06.2016 01:20 10,1 C 22,9 C 11,8 C 10,3 C 10,3 C 0,2 C 86 % 89 % 0 % 1002,6 hPa 0,0 l/m 0,0 km/h (0 Bft) O-NO 67 0 min 7,9 C 10,3 C 0,0 km/h (0 Bft)
16.06.2016 01:25 10,0 C 22,9 C 11,7 C 10,2 C 10,2 C 0,2 C 86 % 89 % 0 % 1002,5 hPa 0,0 l/m 0,0 km/h (0 Bft) O-NO 67 0 min 7,8 C 10,2 C 0,0 km/h (0 Bft)
16.06.2016 01:30 10,0 C 22,9 C 11,8 C 10,2 C 10,2 C 0,2 C 86 % 89 % 0 % 1002,5 hPa 0,0 l/m 0,0 km/h (0 Bft) O-NO 67 0 min 7,8 C 10,2 C 0,0 km/h (0 Bft)
16.06.2016 01:35 10,1 C 22,9 C 11,8 C 10,2 C 10,2 C 0,1 C 87 % 89 % 0 % 1002,5 hPa 0,0 l/m 0,0 km/h (0 Bft) O-SO 112 0 min 8,0 C 10,2 C 0,0 km/h (0 Bft)
16.06.2016 01:40 10,1 C 22,9 C 11,8 C 10,2 C 10,2 C 0,1 C 87 % 89 % 0 % 1002,5 hPa 0,0 l/m 0,0 km/h (0 Bft) O 90 0 min 8,0 C 10,2 C 0,0 km/h (0 Bft)
16.06.2016 01:45 10,0 C 22,9 C 11,7 C 10,2 C 10,2 C 0,2 C 87 % 89 % 0 % 1002,4 hPa 0,0 l/m 0,0 km/h (0 Bft) O-NO 67 0 min 7,9 C 10,2 C 0,0 km/h (0 Bft)
16.06.2016 01:50 10,1 C 22,9 C 11,6 C 10,2 C 10,2 C 0,1 C 87 % 89 % 0 % 1002,4 hPa 0,0 l/m 0,0 km/h (0 Bft) O-SO 112 0 min 8,0 C 10,2 C 0,0 km/h (0 Bft)
16.06.2016 01:55 9,9 C 22,9 C 11,5 C 10,2 C 10,2 C 0,3 C 87 % 89 % 0 % 1002,4 hPa 0,0 l/m 0,0 km/h (0 Bft) NO 45 0 min 7,8 C 10,2 C 0,0 km/h (0 Bft)
16.06.2016 02:00 9,9 C 22,9 C 11,5 C 10,1 C 10,1 C 0,2 C 87 % 89 % 0 % 1002,4 hPa 0,0 l/m 0,0 km/h (0 Bft) NO 45 0 min 7,8 C 10,1 C 0,0 km/h (0 Bft)
16.06.2016 02:05 9,8 C 22,9 C 11,4 C 9,8 C 9,8 C 0,0 C 87 % 89 % 0 % 1002,6 hPa 0,0 l/m 0,0 km/h (0 Bft) N-NW 337 0 min 7,7 C 9,8 C 0,0 km/h (0 Bft)
16.06.2016 02:10 9,7 C 22,9 C 11,3 C 9,8 C 9,8 C 0,1 C 86 % 89 % 0 % 1002,6 hPa 0,0 l/m 0,0 km/h (0 Bft) N-NW 337 0 min 7,5 C 9,8 C 0,0 km/h (0 Bft)
16.06.2016 02:15 9,6 C 22,9 C 11,2 C 9,6 C 9,5 C 0,0 C 86 % 89 % 0 % 1002,6 hPa 0,0 l/m 0,0 km/h (0 Bft) NW 315 0 min 7,4 C 9,5 C 0,0 km/h (0 Bft)
16.06.2016 02:20 9,5 C 22,9 C 11,1 C 9,5 C 9,4 C 0,0 C 87 % 89 % 0 % 1002,6 hPa 0,0 l/m 0,0 km/h (0 Bft) N-NW 337 0 min 7,4 C 9,4 C 0,0 km/h (0 Bft)
16.06.2016 02:25 9,5 C 22,9 C 11,1 C 9,4 C 9,3 C 0,0 C 87 % 89 % 0 % 1002,7 hPa 0,0 l/m 0,0 km/h (0 Bft) N-NW 337 0 min 7,4 C 9,3 C 0,0 km/h (0 Bft)
16.06.2016 02:30 9,3 C 22,9 C 11,1 C 9,3 C 9,2 C 0,0 C 87 % 89 % 0 % 1002,7 hPa 0,0 l/m 0,0 km/h (0 Bft) N-NW 337 0 min 7,2 C 9,2 C 0,0 km/h (0 Bft)
16.06.2016 02:35 9,2 C 22,9 C 11,1 C 9,3 C 9,3 C 0,1 C 87 % 89 % 0 % 1002,7 hPa 0,0 l/m 0,0 km/h (0 Bft) N-NO 22 0 min 7,2 C 9,3 C 0,0 km/h (0 Bft)
16.06.2016 02:40 9,2 C 22,9 C 10,9 C 9,3 C 9,3 C 0,1 C 87 % 89 % 0 % 1002,7 hPa 0,0 l/m 0,0 km/h (0 Bft) O-NO 67 0 min 7,2 C 9,3 C 0,0 km/h (0 Bft)
16.06.2016 02:45 9,2 C 22,9 C 10,8 C 9,3 C 9,3 C 0,1 C 87 % 89 % 0 % 1002,5 hPa 0,0 l/m 0,0 km/h (0 Bft) NO 45 0 min 7,2 C 9,3 C 0,0 km/h (0 Bft)
16.06.2016 02:50 9,3 C 22,9 C 10,9 C 9,3 C 9,3 C 0,0 C 87 % 89 % 0 % 1002,5 hPa 0,0 l/m 0,0 km/h (0 Bft) NO 45 0 min 7,2 C 9,3 C 0,0 km/h (0 Bft)
16.06.2016 02:55 9,2 C 22,8 C 10,8 C 9,3 C 9,3 C 0,1 C 87 % 89 % 0 % 1002,5 hPa 0,0 l/m 0,0 km/h (0 Bft) S 180 0 min 7,2 C 9,3 C 0,0 km/h (0 Bft)
16.06.2016 03:00 9,1 C 22,8 C 10,7 C 9,2 C 9,2 C 0,1 C 87 % 89 % 0 % 1002,5 hPa 0,0 l/m 0,0 km/h (0 Bft) S 180 0 min 7,1 C 9,2 C 0,0 km/h (0 Bft)
16.06.2016 03:05 9,1 C 22,8 C 10,6 C 9,1 C 9,1 C 0,0 C 87 % 90 % 0 % 1002,6 hPa 0,0 l/m 0,0 km/h (0 Bft) O-NO 67 0 min 7,1 C 9,1 C 0,0 km/h (0 Bft)
16.06.2016 03:10 9,1 C 22,8 C 10,7 C 9,1 C 9,0 C 0,0 C 87 % 90 % 0 % 1002,6 hPa 0,0 l/m 0,0 km/h (0 Bft) N-NO 22 0 min 7,1 C 9,0 C 0,0 km/h (0 Bft)
16.06.2016 03:15 8,9 C 22,8 C 10,5 C 8,9 C 8,8 C 0,0 C 87 % 90 % 0 % 1002,6 hPa 0,0 l/m 0,0 km/h (0 Bft) N-NO 22 0 min 6,9 C 8,8 C 0,0 km/h (0 Bft)
16.06.2016 03:20 8,9 C 22,8 C 10,4 C 8,9 C 8,8 C 0,0 C 87 % 90 % 0 % 1002,6 hPa 0,0 l/m 0,0 km/h (0 Bft) N-NO 22 0 min 6,9 C 8,8 C 0,0 km/h (0 Bft)
16.06.2016 03:25 8,7 C 22,8 C 10,5 C 8,7 C 8,7 C 0,0 C 87 % 90 % 0 % 1002,6 hPa 0,0 l/m 0,0 km/h (0 Bft) N-NO 22 0 min 6,7 C 8,7 C 0,0 km/h (0 Bft)
16.06.2016 03:30 8,7 C 22,8 C 10,4 C 8,7 C 8,7 C 0,0 C 87 % 90 % 0 % 1002,6 hPa 0,0 l/m 0,0 km/h (0 Bft) O-NO 67 0 min 6,7 C 8,7 C 0,0 km/h (0 Bft)
16.06.2016 03:35 8,6 C 22,8 C 10,3 C 8,6 C 8,6 C 0,0 C 87 % 90 % 0 % 1002,6 hPa 0,0 l/m 0,0 km/h (0 Bft) NW 315 0 min 6,6 C 8,6 C 0,0 km/h (0 Bft)
16.06.2016 03:47 8,5 C 22,7 C 10,3 C 8,6 C 8,6 C 0,1 C 88 % 90 % 0 % 1003,0 hPa 0,0 l/m 0,0 km/h (0 Bft) N 0 0 min 6,6 C 8,6 C 0,0 km/h (0 Bft)
16.06.2016 03:55 8,4 C 22,7 C 10,3 C 8,6 C 8,6 C 0,2 C 88 % 90 % 0 % 1003,0 hPa 0,0 l/m 0,0 km/h (0 Bft) O-NO 67 0 min 6,5 C 8,6 C 0,0 km/h (0 Bft)
16.06.2016 04:00 8,4 C 22,7 C 10,1 C 8,5 C 8,5 C 0,1 C 88 % 90 % 0 % 1003,0 hPa 0,0 l/m 0,0 km/h (0 Bft) NW 315 0 min 6,5 C 8,5 C 0,0 km/h (0 Bft)
16.06.2016 04:05 8,4 C 22,7 C 10,1 C 8,4 C 8,3 C 0,0 C 88 % 90 % 0 % 1002,9 hPa 0,0 l/m 0,0 km/h (0 Bft) SW 225 0 min 6,5 C 8,3 C 0,0 km/h (0 Bft)
16.06.2016 04:10 8,3 C 22,6 C 10,1 C 8,3 C 8,2 C 0,0 C 88 % 90 % 0 % 1002,9 hPa 0,0 l/m 0,0 km/h (0 Bft) SW 225 0 min 6,4 C 8,2 C 0,0 km/h (0 Bft)
16.06.2016 04:15 8,3 C 22,7 C 10,0 C 8,3 C 8,2 C 0,0 C 88 % 90 % 0 % 1002,9 hPa 0,0 l/m 0,0 km/h (0 Bft) NO 45 0 min 6,4 C 8,2 C 0,0 km/h (0 Bft)
16.06.2016 04:20 8,3 C 22,7 C 10,0 C 8,3 C 8,2 C 0,0 C 88 % 90 % 0 % 1002,9 hPa 0,0 l/m 0,0 km/h (0 Bft) NO 45 0 min 6,4 C 8,2 C 0,0 km/h (0 Bft)
16.06.2016 04:25 8,1 C 22,7 C 9,8 C 8,2 C 8,2 C 0,1 C 88 % 90 % 0 % 1003,0 hPa 0,0 l/m 0,0 km/h (0 Bft) NO 45 0 min 6,2 C 8,2 C 0,0 km/h (0 Bft)
16.06.2016 04:30 8,1 C 22,6 C 9,8 C 8,1 C 8,0 C 0,0 C 88 % 90 % 0 % 1003,0 hPa 0,0 l/m 0,0 km/h (0 Bft) SW 225 0 min 6,2 C 8,0 C 0,0 km/h (0 Bft)
16.06.2016 04:35 8,1 C 22,7 C 9,9 C 8,1 C 8,0 C 0,0 C 88 % 90 % 0 % 1003,0 hPa 0,0 l/m 0,0 km/h (0 Bft) O 90 0 min 6,2 C 8,0 C 0,0 km/h (0 Bft)
16.06.2016 04:40 8,0 C 22,6 C 9,9 C 8,0 C 8,0 C 0,0 C 88 % 90 % 0 % 1003,0 hPa 0,0 l/m 0,0 km/h (0 Bft) W-NW 292 0 min 6,1 C 8,0 C 0,0 km/h (0 Bft)
16.06.2016 04:45 8,0 C 22,6 C 9,9 C 8,0 C 8,0 C 0,0 C 88 % 90 % 0 % 1002,9 hPa 0,0 l/m 0,0 km/h (0 Bft) W-NW 292 0 min 6,1 C 8,0 C 0,0 km/h (0 Bft)
16.06.2016 04:50 8,0 C 22,6 C 9,7 C 8,0 C 8,0 C 0,0 C 88 % 90 % 0 % 1002,9 hPa 0,0 l/m 0,0 km/h (0 Bft) W-NW 292 0 min 6,1 C 8,0 C 0,0 km/h (0 Bft)
16.06.2016 04:55 7,9 C 22,6 C 9,7 C 7,9 C 7,8 C 0,0 C 88 % 90 % 0 % 1002,9 hPa 0,0 l/m 0,0 km/h (0 Bft) W-SW 247 0 min 6,0 C 7,8 C 0,0 km/h (0 Bft)
16.06.2016 05:05 7,7 C 22,5 C 9,6 C 7,7 C 7,6 C 0,0 C 88 % 90 % 0 % 1003,6 hPa 0,0 l/m 0,0 km/h (0 Bft) W 270 0 min 5,8 C 7,6 C 0,0 km/h (0 Bft)
16.06.2016 05:10 7,6 C 22,5 C 9,5 C 7,6 C 7,6 C 0,0 C 88 % 90 % 0 % 1003,6 hPa 0,0 l/m 0,0 km/h (0 Bft) S 180 0 min 5,7 C 7,6 C 0,0 km/h (0 Bft)
16.06.2016 05:15 7,6 C 22,5 C 9,4 C 7,6 C 7,6 C 0,0 C 88 % 90 % 0 % 1003,6 hPa 0,0 l/m 0,0 km/h (0 Bft) N-NO 22 0 min 5,7 C 7,6 C 0,0 km/h (0 Bft)
16.06.2016 05:20 7,5 C 22,5 C 9,5 C 7,6 C 7,6 C 0,1 C 88 % 90 % 3 % 1003,6 hPa 0,0 l/m 0,0 km/h (0 Bft) W 270 0 min 5,6 C 7,6 C 0,0 km/h (0 Bft)
16.06.2016 05:25 7,4 C 22,5 C 9,5 C 7,6 C 7,6 C 0,2 C 88 % 90 % 5 % 1003,5 hPa 0,0 l/m 0,0 km/h (0 Bft) W-SW 247 0 min 5,5 C 7,6 C 0,0 km/h (0 Bft)
16.06.2016 05:30 7,5 C 22,5 C 9,4 C 7,6 C 7,6 C 0,1 C 88 % 90 % 3 % 1003,5 hPa 0,0 l/m 0,0 km/h (0 Bft) W-SW 247 0 min 5,6 C 7,6 C 0,0 km/h (0 Bft)
16.06.2016 05:35 7,6 C 22,5 C 9,5 C 7,9 C 7,9 C 0,3 C 88 % 90 % 8 % 1003,5 hPa 0,0 l/m 0,0 km/h (0 Bft) O-NO 67 0 min 5,7 C 7,9 C 0,0 km/h (0 Bft)
16.06.2016 05:40 7,6 C 22,5 C 9,6 C 8,0 C 8,0 C 0,4 C 89 % 90 % 11 % 1003,5 hPa 0,0 l/m 0,0 km/h (0 Bft) O-NO 67 0 min 5,9 C 8,0 C 0,0 km/h (0 Bft)
16.06.2016 05:45 7,8 C 22,5 C 9,7 C 8,2 C 8,2 C 0,4 C 89 % 90 % 11 % 1003,5 hPa 0,0 l/m 0,0 km/h (0 Bft) O-NO 67 0 min 6,1 C 8,2 C 0,0 km/h (0 Bft)
16.06.2016 05:50 7,8 C 22,5 C 9,7 C 8,3 C 8,3 C 0,5 C 89 % 90 % 13 % 1003,5 hPa 0,0 l/m 0,0 km/h (0 Bft) N-NO 22 0 min 6,1 C 8,3 C 0,0 km/h (0 Bft)
16.06.2016 05:55 7,9 C 22,5 C 9,7 C 8,4 C 8,4 C 0,5 C 89 % 90 % 13 % 1003,5 hPa 0,0 l/m 0,0 km/h (0 Bft) N-NO 22 0 min 6,2 C 8,4 C 0,0 km/h (0 Bft)
16.06.2016 06:00 7,9 C 22,5 C 9,7 C 8,4 C 8,4 C 0,5 C 89 % 90 % 13 % 1003,5 hPa 0,0 l/m 0,0 km/h (0 Bft) NO 45 0 min 6,2 C 8,4 C 0,0 km/h (0 Bft)
16.06.2016 06:05 7,9 C 22,5 C 9,9 C 8,6 C 8,6 C 0,7 C 89 % 90 % 18 % 1003,0 hPa 0,0 l/m 0,0 km/h (0 Bft) W-SW 247 0 min 6,2 C 8,6 C 0,0 km/h (0 Bft)
16.06.2016 06:10 8,0 C 22,5 C 9,9 C 8,6 C 8,6 C 0,6 C 89 % 90 % 16 % 1003,0 hPa 0,0 l/m 0,0 km/h (0 Bft) W-SW 247 0 min 6,3 C 8,6 C 0,0 km/h (0 Bft)
16.06.2016 06:15 8,0 C 22,5 C 10,1 C 8,8 C 8,8 C 0,8 C 90 % 90 % 21 % 1003,0 hPa 0,0 l/m 0,0 km/h (0 Bft) N-NW 337 0 min 6,5 C 8,8 C 0,0 km/h (0 Bft)
16.06.2016 06:20 8,1 C 22,4 C 10,0 C 8,8 C 8,8 C 0,7 C 90 % 90 % 18 % 1003,0 hPa 0,0 l/m 0,0 km/h (0 Bft) W-SW 247 0 min 6,6 C 8,8 C 0,0 km/h (0 Bft)
16.06.2016 06:25 8,3 C 22,4 C 10,0 C 8,9 C 8,9 C 0,6 C 90 % 90 % 16 % 1002,9 hPa 0,0 l/m 0,0 km/h (0 Bft) W 270 0 min 6,8 C 8,9 C 0,0 km/h (0 Bft)
16.06.2016 06:30 8,2 C 22,3 C 10,1 C 9,1 C 9,1 C 0,9 C 90 % 90 % 24 % 1002,9 hPa 0,0 l/m 0,0 km/h (0 Bft) W-SW 247 0 min 6,7 C 9,1 C 0,0 km/h (0 Bft)
16.06.2016 06:35 8,4 C 22,3 C 10,3 C 9,3 C 9,3 C 0,9 C 90 % 90 % 24 % 1002,9 hPa 0,0 l/m 0,0 km/h (0 Bft) W-NW 292 0 min 6,9 C 9,3 C 0,0 km/h (0 Bft)
16.06.2016 07:01 9,6 C 22,2 C 11,6 C 11,7 C 11,7 C 2,1 C 91 % 89 % 55 % 1003,1 hPa 0,0 l/m 0,0 km/h (0 Bft) N 0 0 min 8,2 C 11,7 C 0,0 km/h (0 Bft)
16.06.2016 07:10 10,1 C 22,2 C 12,1 C 15,0 C 15,0 C 4,9 C 92 % 90 % 100 % 1003,2 hPa 0,0 l/m 0,0 km/h (0 Bft) N-NO 22 9 min 8,9 C 15,0 C 0,0 km/h (0 Bft)
16.06.2016 07:15 10,8 C 22,2 C 12,7 C 18,4 C 18,4 C 7,6 C 92 % 90 % 100 % 1003,2 hPa 0,0 l/m 0,0 km/h (0 Bft) N-NO 22 5 min 9,6 C 18,4 C 0,0 km/h (0 Bft)
16.06.2016 07:20 11,2 C 22,1 C 12,9 C 19,7 C 19,7 C 8,5 C 92 % 90 % 100 % 1003,2 hPa 0,0 l/m 0,0 km/h (0 Bft) W 270 5 min 9,9 C 19,7 C 0,0 km/h (0 Bft)
16.06.2016 07:25 11,6 C 22,0 C 13,2 C 21,1 C 21,1 C 9,5 C 92 % 90 % 100 % 1003,3 hPa 0,0 l/m 0,0 km/h (0 Bft) SW 225 5 min 10,3 C 21,1 C 0,0 km/h (0 Bft)
16.06.2016 07:30 11,9 C 22,0 C 13,2 C 21,4 C 21,4 C 9,5 C 92 % 90 % 100 % 1003,3 hPa 0,0 l/m 0,0 km/h (0 Bft) O-SO 112 5 min 10,6 C 21,4 C 0,0 km/h (0 Bft)
16.06.2016 07:35 12,1 C 21,9 C 13,5 C 23,4 C 23,4 C 11,3 C 92 % 89 % 100 % 1003,3 hPa 0,0 l/m 0,0 km/h (0 Bft) SW 225 5 min 10,8 C 23,4 C 0,0 km/h (0 Bft)
16.06.2016 07:40 12,5 C 21,9 C 13,6 C 24,7 C 24,7 C 12,2 C 93 % 89 % 100 % 1003,3 hPa 0,0 l/m 0,0 km/h (0 Bft) S 180 5 min 11,4 C 24,7 C 0,0 km/h (0 Bft)
16.06.2016 07:45 13,2 C 21,9 C 13,6 C 26,0 C 26,0 C 12,8 C 93 % 89 % 100 % 1003,4 hPa 0,0 l/m 0,0 km/h (0 Bft) SW 225 5 min 12,1 C 26,0 C 0,0 km/h (0 Bft)
16.06.2016 07:50 13,6 C 21,9 C 13,7 C 26,9 C 26,9 C 13,3 C 92 % 89 % 100 % 1003,4 hPa 0,0 l/m 0,0 km/h (0 Bft) S-SO 157 5 min 12,3 C 26,9 C 0,0 km/h (0 Bft)
16.06.2016 07:55 14,3 C 21,9 C 13,9 C 27,3 C 27,3 C 13,0 C 92 % 89 % 100 % 1003,4 hPa 0,0 l/m 0,0 km/h (0 Bft) S-SO 157 5 min 13,0 C 27,3 C 0,0 km/h (0 Bft)
16.06.2016 08:00 14,8 C 21,9 C 14,1 C 27,9 C 27,9 C 13,1 C 91 % 89 % 100 % 1003,4 hPa 0,0 l/m 0,0 km/h (0 Bft) S 180 5 min 13,3 C 27,9 C 0,0 km/h (0 Bft)
16.06.2016 08:05 15,2 C 21,8 C 14,3 C 28,5 C 28,5 C 13,3 C 90 % 88 % 100 % 1003,2 hPa 0,0 l/m 0,0 km/h (0 Bft) N 360 5 min 13,6 C 28,5 C 0,0 km/h (0 Bft)
16.06.2016 08:10 15,5 C 21,9 C 14,3 C 28,7 C 28,7 C 13,2 C 89 % 88 % 100 % 1003,2 hPa 0,0 l/m 0,0 km/h (0 Bft) S 180 5 min 13,7 C 28,7 C 0,0 km/h (0 Bft)
16.06.2016 08:15 16,0 C 21,9 C 14,5 C 29,4 C 29,4 C 13,4 C 87 % 88 % 100 % 1003,2 hPa 0,0 l/m 0,0 km/h (0 Bft) S 180 5 min 13,8 C 29,4 C 1,8 km/h (1 Bft)
16.06.2016 08:20 16,3 C 21,9 C 14,6 C 29,2 C 29,2 C 12,9 C 86 % 88 % 100 % 1003,2 hPa 0,0 l/m 0,2 km/h (0 Bft) S 180 5 min 14,0 C 29,2 C 0,0 km/h (0 Bft)
16.06.2016 08:25 16,8 C 21,8 C 14,9 C 29,1 C 29,1 C 12,3 C 85 % 88 % 100 % 1003,5 hPa 0,0 l/m 0,5 km/h (0 Bft) W-SW 247 5 min 14,3 C 29,1 C 4,7 km/h (1 Bft)
16.06.2016 08:30 17,0 C 21,9 C 15,0 C 28,8 C 28,8 C 11,8 C 82 % 87 % 100 % 1003,5 hPa 0,0 l/m 0,6 km/h (0 Bft) W 270 5 min 13,9 C 28,8 C 2,4 km/h (1 Bft)
16.06.2016 08:35 17,6 C 21,8 C 15,1 C 29,2 C 29,2 C 11,6 C 81 % 87 % 100 % 1003,5 hPa 0,0 l/m 0,3 km/h (0 Bft) S 180 5 min 14,3 C 29,2 C 0,0 km/h (0 Bft)
16.06.2016 08:40 18,3 C 21,8 C 15,0 C 29,6 C 29,6 C 11,3 C 78 % 87 % 100 % 1003,5 hPa 0,0 l/m 0,2 km/h (0 Bft) SW 225 5 min 14,4 C 29,6 C 1,9 km/h (1 Bft)
16.06.2016 08:45 19,1 C 21,7 C 15,1 C 29,4 C 29,4 C 10,3 C 75 % 86 % 100 % 1003,6 hPa 0,0 l/m 0,5 km/h (0 Bft) W 270 5 min 14,6 C 29,4 C 0,0 km/h (0 Bft)
16.06.2016 08:50 19,5 C 21,7 C 15,2 C 29,7 C 29,7 C 10,2 C 73 % 86 % 100 % 1003,6 hPa 0,0 l/m 0,5 km/h (0 Bft) S 180 5 min 14,5 C 29,7 C 0,0 km/h (0 Bft)
16.06.2016 08:55 19,8 C 21,7 C 15,3 C 30,3 C 30,3 C 10,5 C 71 % 86 % 100 % 1003,6 hPa 0,0 l/m 0,2 km/h (0 Bft) SO 135 5 min 14,4 C 30,3 C 0,0 km/h (0 Bft)
16.06.2016 09:00 20,0 C 21,7 C 15,4 C 30,1 C 30,1 C 10,1 C 69 % 85 % 100 % 1003,6 hPa 0,0 l/m 0,5 km/h (0 Bft) S-SW 202 5 min 14,1 C 30,1 C 0,0 km/h (0 Bft)
16.06.2016 09:05 20,1 C 21,8 C 15,4 C 29,7 C 29,7 C 9,6 C 69 % 84 % 100 % 1003,6 hPa 0,0 l/m 0,5 km/h (0 Bft) SW 225 5 min 14,2 C 29,7 C 0,0 km/h (0 Bft)
16.06.2016 09:10 20,3 C 21,8 C 15,6 C 28,8 C 28,8 C 8,5 C 69 % 84 % 100 % 1003,6 hPa 0,0 l/m 0,3 km/h (0 Bft) S 180 5 min 14,4 C 28,8 C 2,4 km/h (1 Bft)
16.06.2016 09:15 20,5 C 21,8 C 15,7 C 28,1 C 28,1 C 7,6 C 66 % 84 % 100 % 1003,6 hPa 0,0 l/m 0,8 km/h (0 Bft) NW 315 5 min 13,9 C 28,1 C 2,7 km/h (1 Bft)
16.06.2016 09:20 20,4 C 21,8 C 15,9 C 26,6 C 26,6 C 6,2 C 65 % 84 % 100 % 1003,6 hPa 0,0 l/m 0,8 km/h (0 Bft) W 270 5 min 13,6 C 26,6 C 1,6 km/h (1 Bft)
16.06.2016 09:25 20,3 C 21,8 C 15,9 C 26,2 C 26,2 C 5,9 C 66 % 84 % 100 % 1003,8 hPa 0,0 l/m 0,8 km/h (0 Bft) S-SW 202 5 min 13,7 C 26,2 C 0,0 km/h (0 Bft)
16.06.2016 09:30 20,3 C 21,8 C 16,1 C 26,4 C 26,4 C 6,1 C 65 % 83 % 100 % 1003,8 hPa 0,0 l/m 0,6 km/h (0 Bft) S-SO 157 5 min 13,5 C 26,4 C 0,0 km/h (0 Bft)
16.06.2016 09:35 20,2 C 21,8 C 16,1 C 26,0 C 26,0 C 5,8 C 65 % 83 % 100 % 1003,8 hPa 0,0 l/m 0,5 km/h (0 Bft) SW 225 5 min 13,4 C 26,0 C 0,0 km/h (0 Bft)
16.06.2016 09:56 19,1 C 21,8 C 16,7 C 25,6 C 25,6 C 6,5 C 65 % 81 % 100 % 1003,3 hPa 0,0 l/m 2,1 km/h (1 Bft) N 0 21 min 12,4 C 25,6 C 4,8 km/h (1 Bft)
16.06.2016 10:05 18,9 C 21,8 C 16,9 C 25,3 C 25,3 C 6,4 C 67 % 80 % 100 % 1003,1 hPa 0,0 l/m 1,8 km/h (1 Bft) O-SO 112 9 min 12,6 C 25,3 C 5,1 km/h (1 Bft)
16.06.2016 10:10 18,9 C 21,8 C 17,0 C 25,5 C 25,5 C 6,6 C 67 % 80 % 100 % 1003,1 hPa 0,0 l/m 2,6 km/h (1 Bft) O-NO 67 5 min 12,6 C 25,5 C 4,5 km/h (1 Bft)
16.06.2016 10:15 19,0 C 21,7 C 17,5 C 25,4 C 25,4 C 6,4 C 67 % 81 % 100 % 1003,1 hPa 0,0 l/m 3,4 km/h (1 Bft) O-NO 67 5 min 12,7 C 25,4 C 6,1 km/h (2 Bft)
16.06.2016 10:25 19,1 C 21,8 C 17,7 C 25,4 C 25,4 C 6,3 C 66 % 79 % 100 % 1003,6 hPa 0,0 l/m 3,2 km/h (1 Bft) O-NO 67 10 min 12,6 C 25,4 C 6,3 km/h (2 Bft)
16.06.2016 10:30 19,0 C 21,8 C 17,8 C 25,5 C 25,5 C 6,5 C 65 % 78 % 100 % 1003,6 hPa 0,0 l/m 3,5 km/h (1 Bft) O-NO 67 5 min 12,3 C 25,5 C 4,3 km/h (1 Bft)
16.06.2016 10:35 19,0 C 21,8 C 17,8 C 24,9 C 24,9 C 5,9 C 66 % 77 % 100 % 1003,6 hPa 0,0 l/m 3,5 km/h (1 Bft) O 90 5 min 12,5 C 24,9 C 0,0 km/h (0 Bft)
16.06.2016 10:40 19,2 C 21,8 C 17,8 C 24,4 C 24,4 C 5,2 C 67 % 77 % 100 % 1003,6 hPa 0,0 l/m 2,3 km/h (1 Bft) SW 225 5 min 12,9 C 24,4 C 0,0 km/h (0 Bft)
16.06.2016 10:45 19,3 C 21,8 C 17,7 C 24,1 C 24,1 C 4,8 C 66 % 77 % 100 % 1003,5 hPa 0,0 l/m 1,1 km/h (1 Bft) NO 45 5 min 12,8 C 24,1 C 6,3 km/h (2 Bft)
16.06.2016 10:50 19,4 C 21,8 C 18,0 C 24,6 C 24,6 C 5,2 C 64 % 76 % 100 % 1003,5 hPa 0,0 l/m 2,1 km/h (1 Bft) NW 315 5 min 12,4 C 24,6 C 4,2 km/h (1 Bft)
16.06.2016 10:55 19,7 C 21,8 C 18,0 C 26,7 C 26,7 C 7,0 C 64 % 76 % 100 % 1003,5 hPa 0,0 l/m 2,1 km/h (1 Bft) NW 315 5 min 12,7 C 26,7 C 6,4 km/h (2 Bft)
16.06.2016 11:00 19,9 C 21,8 C 18,1 C 27,2 C 27,2 C 7,3 C 64 % 76 % 100 % 1003,5 hPa 0,0 l/m 1,1 km/h (1 Bft) W-SW 247 5 min 12,9 C 27,2 C 2,4 km/h (1 Bft)
16.06.2016 11:05 20,1 C 21,8 C 18,1 C 27,4 C 27,4 C 7,3 C 64 % 76 % 100 % 1003,3 hPa 0,0 l/m 1,3 km/h (1 Bft) W-SW 247 5 min 13,1 C 27,4 C 0,0 km/h (0 Bft)
16.06.2016 11:10 20,5 C 21,8 C 18,2 C 27,1 C 27,1 C 6,6 C 63 % 76 % 100 % 1003,3 hPa 0,0 l/m 1,0 km/h (0 Bft) SW 225 5 min 13,2 C 27,1 C 0,0 km/h (0 Bft)
16.06.2016 11:15 20,7 C 21,8 C 18,3 C 26,7 C 26,7 C 6,0 C 60 % 75 % 100 % 1003,3 hPa 0,0 l/m 0,3 km/h (0 Bft) O-NO 67 5 min 12,7 C 26,7 C 0,0 km/h (0 Bft)
16.06.2016 11:20 20,6 C 21,9 C 18,3 C 25,9 C 25,9 C 5,3 C 60 % 74 % 100 % 1003,3 hPa 0,0 l/m 0,8 km/h (0 Bft) N 360 5 min 12,6 C 25,9 C 0,0 km/h (0 Bft)
16.06.2016 11:25 20,7 C 21,9 C 18,4 C 25,6 C 25,6 C 4,9 C 61 % 74 % 100 % 1003,3 hPa 0,0 l/m 0,8 km/h (0 Bft) N-NO 22 5 min 12,9 C 25,6 C 1,6 km/h (1 Bft)
16.06.2016 11:30 20,6 C 21,9 C 18,7 C 25,9 C 25,9 C 5,3 C 60 % 74 % 100 % 1003,3 hPa 0,0 l/m 0,8 km/h (0 Bft) S-SW 202 5 min 12,6 C 25,9 C 0,0 km/h (0 Bft)
16.06.2016 11:35 20,6 C 21,9 C 18,7 C 25,6 C 25,6 C 5,0 C 60 % 72 % 100 % 1003,3 hPa 0,0 l/m 1,1 km/h (1 Bft) NO 45 5 min 12,6 C 25,6 C 0,0 km/h (0 Bft)
16.06.2016 11:40 20,4 C 21,9 C 18,7 C 25,0 C 25,0 C 4,6 C 60 % 73 % 100 % 1003,3 hPa 0,0 l/m 1,0 km/h (0 Bft) W 270 5 min 12,4 C 25,0 C 1,6 km/h (1 Bft)
16.06.2016 11:45 20,4 C 21,9 C 18,7 C 24,8 C 24,8 C 4,4 C 62 % 75 % 100 % 1003,1 hPa 0,0 l/m 0,5 km/h (0 Bft) NO 45 5 min 12,9 C 24,8 C 0,0 km/h (0 Bft)
16.06.2016 11:50 20,5 C 21,9 C 18,7 C 24,6 C 24,6 C 4,1 C 63 % 75 % 100 % 1003,1 hPa 0,0 l/m 0,6 km/h (0 Bft) W-SW 247 5 min 13,2 C 24,6 C 0,0 km/h (0 Bft)
16.06.2016 11:55 20,5 C 21,9 C 18,8 C 24,5 C 24,5 C 4,0 C 62 % 73 % 100 % 1003,1 hPa 0,0 l/m 1,0 km/h (0 Bft) O-NO 67 5 min 13,0 C 24,5 C 2,7 km/h (1 Bft)
16.06.2016 12:00 20,5 C 21,9 C 18,9 C 24,4 C 24,4 C 3,9 C 62 % 72 % 100 % 1003,1 hPa 0,0 l/m 0,6 km/h (0 Bft) O-NO 67 5 min 13,0 C 24,4 C 0,0 km/h (0 Bft)
16.06.2016 12:05 20,6 C 22,0 C 19,0 C 24,7 C 24,7 C 4,1 C 61 % 72 % 100 % 1003,1 hPa 0,0 l/m 1,1 km/h (1 Bft) N-NW 337 5 min 12,8 C 24,7 C 2,9 km/h (1 Bft)
16.06.2016 12:10 20,7 C 22,0 C 19,2 C 25,0 C 25,0 C 4,3 C 60 % 70 % 100 % 1003,1 hPa 0,0 l/m 1,4 km/h (1 Bft) W 270 5 min 12,7 C 25,0 C 0,0 km/h (0 Bft)
16.06.2016 12:15 20,9 C 22,0 C 19,2 C 25,1 C 25,1 C 4,2 C 61 % 71 % 100 % 1003,1 hPa 0,0 l/m 1,1 km/h (1 Bft) NO 45 5 min 13,1 C 25,1 C 0,0 km/h (0 Bft)
16.06.2016 12:20 20,9 C 22,0 C 19,2 C 25,1 C 25,1 C 4,2 C 60 % 72 % 100 % 1003,1 hPa 0,0 l/m 0,6 km/h (0 Bft) W-NW 292 5 min 12,8 C 25,1 C 2,1 km/h (1 Bft)
16.06.2016 12:25 20,9 C 22,0 C 19,3 C 25,1 C 25,1 C 4,2 C 60 % 70 % 100 % 1003,3 hPa 0,0 l/m 0,6 km/h (0 Bft) SO 135 5 min 12,8 C 25,1 C 2,1 km/h (1 Bft)
16.06.2016 12:30 20,9 C 22,0 C 19,4 C 25,0 C 25,0 C 4,1 C 60 % 70 % 100 % 1003,3 hPa 0,0 l/m 1,0 km/h (0 Bft) O-NO 67 5 min 12,8 C 25,0 C 3,2 km/h (1 Bft)
16.06.2016 12:35 20,6 C 22,0 C 19,5 C 24,6 C 24,6 C 4,0 C 61 % 70 % 100 % 1003,3 hPa 0,0 l/m 1,8 km/h (1 Bft) O-SO 112 5 min 12,8 C 24,6 C 2,6 km/h (1 Bft)
16.06.2016 12:49 20,7 C 22,1 C 19,5 C 24,3 C 24,3 C 3,6 C 61 % 70 % 95 % 1003,2 hPa 0,0 l/m 1,9 km/h (1 Bft) N 0 14 min 12,9 C 24,3 C 0,0 km/h (0 Bft)
16.06.2016 12:55 20,9 C 22,1 C 19,5 C 24,7 C 24,7 C 3,8 C 62 % 69 % 100 % 1003,2 hPa 0,0 l/m 0,5 km/h (0 Bft) NO 45 6 min 13,3 C 24,7 C 0,0 km/h (0 Bft)
16.06.2016 13:00 21,1 C 22,1 C 19,5 C 25,0 C 25,0 C 3,9 C 61 % 70 % 100 % 1003,2 hPa 0,0 l/m 0,0 km/h (0 Bft) O-SO 112 5 min 13,3 C 25,0 C 0,0 km/h (0 Bft)
16.06.2016 13:05 21,2 C 22,1 C 19,6 C 25,2 C 25,2 C 4,0 C 60 % 69 % 100 % 1003,4 hPa 0,0 l/m 0,3 km/h (0 Bft) O-NO 67 5 min 13,1 C 25,2 C 0,0 km/h (0 Bft)
16.06.2016 13:10 21,2 C 22,1 C 19,6 C 25,4 C 25,4 C 4,2 C 59 % 68 % 100 % 1003,4 hPa 0,0 l/m 0,5 km/h (0 Bft) O-SO 112 5 min 12,9 C 25,4 C 1,8 km/h (1 Bft)
16.06.2016 13:15 21,2 C 22,1 C 19,7 C 25,5 C 25,5 C 4,3 C 58 % 68 % 100 % 1003,4 hPa 0,0 l/m 0,6 km/h (0 Bft) N-NW 337 5 min 12,6 C 25,5 C 0,0 km/h (0 Bft)
16.06.2016 13:20 21,2 C 22,1 C 19,7 C 25,4 C 25,4 C 4,2 C 59 % 68 % 100 % 1003,4 hPa 0,0 l/m 0,6 km/h (0 Bft) NW 315 5 min 12,9 C 25,4 C 3,7 km/h (1 Bft)
16.06.2016 13:25 21,3 C 22,1 C 19,7 C 25,3 C 25,3 C 4,0 C 58 % 67 % 100 % 1003,3 hPa 0,0 l/m 1,1 km/h (1 Bft) NW 315 5 min 12,7 C 25,3 C 3,7 km/h (1 Bft)
16.06.2016 13:30 21,2 C 22,1 C 19,7 C 24,9 C 24,9 C 3,7 C 59 % 68 % 97 % 1003,3 hPa 0,0 l/m 1,4 km/h (1 Bft) O-NO 67 5 min 12,9 C 24,9 C 2,1 km/h (1 Bft)
16.06.2016 13:35 21,1 C 22,1 C 19,7 C 24,6 C 24,6 C 3,5 C 59 % 67 % 92 % 1003,3 hPa 0,0 l/m 1,0 km/h (0 Bft) S 180 5 min 12,8 C 24,6 C 0,0 km/h (0 Bft)
16.06.2016 13:40 21,2 C 22,1 C 19,7 C 24,7 C 24,7 C 3,5 C 59 % 68 % 92 % 1003,3 hPa 0,0 l/m 0,5 km/h (0 Bft) NW 315 5 min 12,9 C 24,7 C 2,9 km/h (1 Bft)
16.06.2016 13:45 21,2 C 22,2 C 19,7 C 24,4 C 24,4 C 3,2 C 58 % 69 % 84 % 1003,3 hPa 0,0 l/m 1,0 km/h (0 Bft) N 360 0 min 12,6 C 24,4 C 1,6 km/h (1 Bft)
16.06.2016 13:50 21,2 C 22,2 C 19,6 C 24,3 C 24,3 C 3,1 C 59 % 69 % 82 % 1003,3 hPa 0,0 l/m 1,3 km/h (1 Bft) N-NO 22 0 min 12,9 C 24,3 C 1,8 km/h (1 Bft)
16.06.2016 13:55 21,2 C 22,2 C 19,6 C 24,1 C 24,1 C 2,9 C 60 % 68 % 76 % 1003,3 hPa 0,0 l/m 0,6 km/h (0 Bft) O-SO 112 0 min 13,1 C 24,1 C 0,0 km/h (0 Bft)
16.06.2016 14:00 21,3 C 22,2 C 19,6 C 24,1 C 24,1 C 2,8 C 60 % 68 % 74 % 1003,3 hPa 0,0 l/m 0,5 km/h (0 Bft) N-NO 22 0 min 13,2 C 24,1 C 1,6 km/h (1 Bft)
16.06.2016 14:05 21,5 C 22,2 C 19,6 C 24,3 C 24,3 C 2,8 C 59 % 69 % 74 % 1003,4 hPa 0,0 l/m 0,2 km/h (0 Bft) N-NO 22 0 min 13,1 C 24,3 C 0,0 km/h (0 Bft)
16.06.2016 14:10 21,5 C 22,2 C 19,6 C 24,3 C 24,3 C 2,8 C 60 % 69 % 74 % 1003,4 hPa 0,0 l/m 0,3 km/h (0 Bft) NO 45 0 min 13,4 C 24,3 C 0,0 km/h (0 Bft)
16.06.2016 14:15 21,5 C 22,2 C 19,6 C 24,4 C 24,4 C 2,9 C 59 % 70 % 76 % 1003,4 hPa 0,0 l/m 0,3 km/h (0 Bft) N-NW 337 0 min 13,1 C 24,4 C 2,3 km/h (1 Bft)
16.06.2016 14:20 21,5 C 22,2 C 19,6 C 24,3 C 24,3 C 2,8 C 59 % 70 % 74 % 1003,4 hPa 0,0 l/m 0,6 km/h (0 Bft) O-NO 67 0 min 13,1 C 24,3 C 1,8 km/h (1 Bft)
16.06.2016 14:25 21,3 C 22,2 C 19,7 C 23,9 C 23,9 C 2,6 C 61 % 69 % 68 % 1003,2 hPa 0,0 l/m 1,1 km/h (1 Bft) O-NO 67 0 min 13,5 C 23,9 C 0,0 km/h (0 Bft)
16.06.2016 14:30 21,3 C 22,2 C 19,7 C 23,7 C 23,7 C 2,4 C 61 % 70 % 63 % 1003,2 hPa 0,0 l/m 1,3 km/h (1 Bft) N-NW 337 0 min 13,5 C 23,7 C 3,2 km/h (1 Bft)
16.06.2016 14:35 21,2 C 22,3 C 19,6 C 23,5 C 23,5 C 2,3 C 62 % 70 % 61 % 1003,2 hPa 0,0 l/m 0,6 km/h (0 Bft) O 90 0 min 13,6 C 23,5 C 0,0 km/h (0 Bft)
16.06.2016 14:40 21,3 C 22,3 C 19,5 C 23,5 C 23,5 C 2,2 C 62 % 70 % 58 % 1003,2 hPa 0,0 l/m 0,5 km/h (0 Bft) O-SO 112 0 min 13,7 C 23,5 C 0,0 km/h (0 Bft)
16.06.2016 14:45 21,4 C 22,3 C 19,3 C 23,3 C 23,3 C 1,9 C 61 % 70 % 50 % 1003,4 hPa 0,0 l/m 0,3 km/h (0 Bft) W 270 0 min 13,6 C 23,3 C 1,6 km/h (1 Bft)
16.06.2016 14:50 21,4 C 22,3 C 19,2 C 22,8 C 22,8 C 1,4 C 61 % 72 % 37 % 1003,4 hPa 0,0 l/m 0,3 km/h (0 Bft) W-SW 247 0 min 13,6 C 22,8 C 0,0 km/h (0 Bft)
16.06.2016 14:55 21,2 C 22,3 C 19,1 C 22,0 C 22,0 C 0,8 C 61 % 72 % 21 % 1003,4 hPa 0,0 l/m 0,3 km/h (0 Bft) S-SO 157 0 min 13,4 C 22,0 C 0,0 km/h (0 Bft)
16.06.2016 15:00 21,1 C 22,3 C 18,9 C 21,7 C 21,7 C 0,6 C 62 % 72 % 16 % 1003,4 hPa 0,0 l/m 0,2 km/h (0 Bft) O-NO 67 0 min 13,5 C 21,7 C 0,0 km/h (0 Bft)
16.06.2016 15:10 21,0 C 22,3 C 18,6 C 20,7 C 20,0 C 0,0 C 64 % 75 % 0 % 1003,4 hPa 0,0 l/m 0,0 km/h (0 Bft) SO 135 0 min 13,9 C 20,0 C 0,0 km/h (0 Bft)
16.06.2016 15:15 20,8 C 22,4 C 18,1 C 20,0 C 18,5 C 0,0 C 65 % 77 % 0 % 1003,4 hPa 0,0 l/m 0,0 km/h (0 Bft) N-NW 337 0 min 14,0 C 18,5 C 0,0 km/h (0 Bft)
16.06.2016 15:20 20,6 C 22,4 C 18,0 C 19,7 C 18,0 C 0,0 C 67 % 78 % 0 % 1003,4 hPa 0,0 l/m 0,0 km/h (0 Bft) N-NO 22 0 min 14,3 C 18,0 C 0,0 km/h (0 Bft)
16.06.2016 15:25 20,5 C 22,5 C 17,7 C 19,5 C 17,6 C 0,0 C 69 % 80 % 0 % 1003,3 hPa 0,0 l/m 0,0 km/h (0 Bft) N-NO 22 0 min 14,6 C 17,6 C 0,0 km/h (0 Bft)
16.06.2016 15:30 20,4 C 22,5 C 17,3 C 19,4 C 17,3 C 0,0 C 70 % 80 % 0 % 1003,3 hPa 0,0 l/m 0,0 km/h (0 Bft) N-NO 22 0 min 14,7 C 17,3 C 0,0 km/h (0 Bft)
16.06.2016 15:35 20,2 C 22,6 C 17,2 C 19,2 C 17,1 C 0,0 C 71 % 82 % 0 % 1003,3 hPa 0,0 l/m 0,0 km/h (0 Bft) N-NO 22 0 min 14,8 C 17,1 C 0,0 km/h (0 Bft)
16.06.2016 16:01 19,8 C 22,7 C 17,3 C 19,0 C 17,4 C 0,0 C 75 % 86 % 0 % 1003,1 hPa 0,0 l/m 0,0 km/h (0 Bft) N 0 0 min 15,2 C 17,4 C 0,0 km/h (0 Bft)
16.06.2016 16:10 19,5 C 22,7 C 17,1 C 18,7 C 17,0 C 0,0 C 76 % 86 % 0 % 1003,7 hPa 0,0 l/m 0,0 km/h (0 Bft) NW 315 0 min 15,2 C 17,0 C 0,0 km/h (0 Bft)
16.06.2016 16:15 19,3 C 22,7 C 17,1 C 18,4 C 16,7 C 0,0 C 76 % 86 % 0 % 1003,7 hPa 0,0 l/m 0,0 km/h (0 Bft) N-NW 337 0 min 15,0 C 16,7 C 0,0 km/h (0 Bft)
16.06.2016 16:20 19,1 C 22,7 C 17,0 C 18,3 C 16,6 C 0,0 C 76 % 86 % 0 % 1003,7 hPa 0,0 l/m 0,0 km/h (0 Bft) NW 315 0 min 14,8 C 16,6 C 0,0 km/h (0 Bft)
16.06.2016 16:25 18,9 C 22,6 C 17,1 C 18,1 C 16,6 C 0,0 C 77 % 86 % 0 % 1003,2 hPa 0,0 l/m 0,0 km/h (0 Bft) W-SW 247 0 min 14,8 C 16,6 C 0,0 km/h (0 Bft)
16.06.2016 16:30 18,6 C 22,6 C 16,9 C 17,9 C 16,4 C 0,0 C 77 % 87 % 0 % 1003,2 hPa 0,0 l/m 0,0 km/h (0 Bft) W-SW 247 0 min 14,5 C 16,4 C 0,0 km/h (0 Bft)
16.06.2016 16:35 18,4 C 22,7 C 16,8 C 17,7 C 16,4 C 0,0 C 77 % 87 % 0 % 1003,2 hPa 0,0 l/m 0,0 km/h (0 Bft) N-NW 337 0 min 14,3 C 16,4 C 0,0 km/h (0 Bft)
16.06.2016 16:40 18,2 C 22,6 C 16,8 C 17,6 C 16,3 C 0,0 C 77 % 86 % 0 % 1003,2 hPa 0,0 l/m 0,0 km/h (0 Bft) NW 315 0 min 14,1 C 16,3 C 0,0 km/h (0 Bft)
16.06.2016 16:45 18,0 C 22,7 C 16,5 C 17,4 C 16,1 C 0,0 C 77 % 86 % 0 % 1003,9 hPa 0,7 l/m 0,0 km/h (0 Bft) W 270 0 min 13,9 C 16,1 C 0,0 km/h (0 Bft)
16.06.2016 16:50 17,8 C 22,7 C 16,4 C 17,2 C 15,9 C 0,0 C 77 % 86 % 0 % 1003,9 hPa 0,0 l/m 0,0 km/h (0 Bft) O-NO 67 0 min 13,7 C 15,9 C 0,0 km/h (0 Bft)
16.06.2016 16:55 17,5 C 22,8 C 16,2 C 16,9 C 15,7 C 0,0 C 78 % 87 % 0 % 1003,9 hPa 0,0 l/m 0,0 km/h (0 Bft) SO 135 0 min 13,6 C 15,7 C 0,0 km/h (0 Bft)
16.06.2016 17:00 17,3 C 22,9 C 16,0 C 16,7 C 15,5 C 0,0 C 78 % 87 % 0 % 1003,9 hPa 0,0 l/m 0,0 km/h (0 Bft) W-NW 292 0 min 13,4 C 15,5 C 0,0 km/h (0 Bft)
16.06.2016 17:05 17,1 C 23,0 C 15,7 C 16,6 C 15,5 C 0,0 C 78 % 88 % 0 % 1003,7 hPa 0,7 l/m 0,2 km/h (0 Bft) O-SO 112 0 min 13,2 C 15,5 C 0,0 km/h (0 Bft)
16.06.2016 17:10 16,8 C 23,0 C 15,7 C 16,4 C 15,5 C 0,0 C 79 % 89 % 0 % 1003,7 hPa 0,0 l/m 0,2 km/h (0 Bft) N-NW 337 0 min 13,1 C 15,5 C 0,0 km/h (0 Bft)
16.06.2016 17:15 16,4 C 23,1 C 15,6 C 16,1 C 15,5 C 0,0 C 79 % 89 % 0 % 1003,7 hPa 0,0 l/m 0,0 km/h (0 Bft) N-NO 22 0 min 12,7 C 15,5 C 0,0 km/h (0 Bft)
16.06.2016 17:20 16,1 C 23,1 C 15,6 C 15,9 C 15,5 C 0,0 C 80 % 89 % 0 % 1003,7 hPa 0,0 l/m 0,0 km/h (0 Bft) O-NO 67 0 min 12,6 C 15,5 C 0,0 km/h (0 Bft)
16.06.2016 17:25 15,9 C 23,1 C 15,7 C 15,8 C 15,6 C 0,0 C 81 % 88 % 0 % 1003,4 hPa 0,7 l/m 0,0 km/h (0 Bft) N-NW 337 0 min 12,6 C 15,6 C 0,0 km/h (0 Bft)
16.06.2016 17:30 15,7 C 23,1 C 15,6 C 15,7 C 15,6 C 0,0 C 81 % 88 % 0 % 1003,4 hPa 0,0 l/m 0,2 km/h (0 Bft) S 180 0 min 12,4 C 15,6 C 0,0 km/h (0 Bft)
16.06.2016 17:35 15,6 C 23,1 C 15,6 C 15,6 C 15,6 C 0,0 C 81 % 87 % 0 % 1003,4 hPa 0,0 l/m 0,2 km/h (0 Bft) N-NO 22 0 min 12,3 C 15,6 C 0,0 km/h (0 Bft)
16.06.2016 17:40 15,5 C 23,1 C 15,6 C 15,7 C 15,7 C 0,2 C 82 % 85 % 5 % 1003,4 hPa 0,0 l/m 0,0 km/h (0 Bft) NO 45 0 min 12,4 C 15,7 C 0,0 km/h (0 Bft)
16.06.2016 17:45 15,5 C 23,1 C 15,7 C 16,0 C 16,0 C 0,5 C 83 % 84 % 13 % 1003,0 hPa 0,0 l/m 0,0 km/h (0 Bft) NO 45 0 min 12,6 C 16,0 C 0,0 km/h (0 Bft)
16.06.2016 17:50 15,5 C 23,1 C 15,8 C 16,2 C 16,2 C 0,7 C 83 % 83 % 18 % 1003,0 hPa 0,0 l/m 0,0 km/h (0 Bft) O-NO 67 0 min 12,6 C 16,2 C 0,0 km/h (0 Bft)
16.06.2016 17:55 15,7 C 23,1 C 15,8 C 16,4 C 16,4 C 0,7 C 84 % 81 % 18 % 1003,0 hPa 0,0 l/m 0,0 km/h (0 Bft) N-NO 22 0 min 13,0 C 16,4 C 1,9 km/h (1 Bft)
16.06.2016 18:00 15,7 C 23,1 C 15,9 C 16,6 C 16,6 C 0,9 C 85 % 81 % 24 % 1003,0 hPa 0,0 l/m 0,0 km/h (0 Bft) NO 45 0 min 13,2 C 16,6 C 0,0 km/h (0 Bft)
16.06.2016 18:05 15,8 C 23,1 C 16,0 C 16,8 C 16,8 C 1,0 C 85 % 79 % 26 % 1002,4 hPa 0,0 l/m 0,0 km/h (0 Bft) N-NO 22 0 min 13,3 C 16,8 C 0,0 km/h (0 Bft)
16.06.2016 18:10 15,7 C 23,1 C 15,9 C 16,8 C 16,8 C 1,1 C 85 % 79 % 29 % 1002,4 hPa 0,0 l/m 0,6 km/h (0 Bft) N 360 0 min 13,2 C 16,8 C 2,6 km/h (1 Bft)
16.06.2016 18:15 15,7 C 23,1 C 15,9 C 17,1 C 17,1 C 1,4 C 85 % 79 % 37 % 1002,4 hPa 0,0 l/m 0,8 km/h (0 Bft) O 90 0 min 13,2 C 17,1 C 0,0 km/h (0 Bft)
16.06.2016 18:20 15,7 C 23,1 C 15,9 C 17,2 C 17,2 C 1,5 C 85 % 79 % 39 % 1002,4 hPa 0,0 l/m 0,3 km/h (0 Bft) O-NO 67 0 min 13,2 C 17,2 C 0,0 km/h (0 Bft)
16.06.2016 18:25 15,7 C 23,1 C 15,9 C 17,3 C 17,3 C 1,6 C 85 % 78 % 42 % 1002,2 hPa 0,0 l/m 0,6 km/h (0 Bft) O 90 0 min 13,2 C 17,3 C 2,7 km/h (1 Bft)
16.06.2016 18:30 15,6 C 23,1 C 16,1 C 17,3 C 17,3 C 1,7 C 84 % 78 % 45 % 1002,2 hPa 0,0 l/m 0,6 km/h (0 Bft) S-SO 157 0 min 12,9 C 17,3 C 0,0 km/h (0 Bft)
16.06.2016 18:35 15,7 C 23,1 C 16,0 C 17,3 C 17,3 C 1,6 C 85 % 77 % 42 % 1002,2 hPa 0,0 l/m 0,2 km/h (0 Bft) O-SO 112 0 min 13,2 C 17,3 C 0,0 km/h (0 Bft)
16.06.2016 18:55 16,2 C 23,1 C 16,5 C 17,8 C 17,8 C 1,6 C 86 % 75 % 42 % 1002,2 hPa 0,0 l/m 0,0 km/h (0 Bft) N 0 0 min 13,9 C 17,8 C 0,0 km/h (0 Bft)
16.06.2016 19:05 16,5 C 23,1 C 16,6 C 17,9 C 17,9 C 1,4 C 86 % 75 % 37 % 1001,9 hPa 0,0 l/m 0,0 km/h (0 Bft) SW 225 0 min 14,1 C 17,9 C 0,0 km/h (0 Bft)
16.06.2016 19:10 16,5 C 23,1 C 16,7 C 18,0 C 18,0 C 1,5 C 86 % 74 % 39 % 1001,9 hPa 0,0 l/m 0,0 km/h (0 Bft) W 270 0 min 14,1 C 18,0 C 0,0 km/h (0 Bft)
16.06.2016 19:15 16,5 C 23,2 C 16,7 C 18,0 C 18,0 C 1,5 C 85 % 74 % 39 % 1001,9 hPa 0,0 l/m 0,0 km/h (0 Bft) O-NO 67 0 min 14,0 C 18,0 C 0,0 km/h (0 Bft)
16.06.2016 19:20 16,5 C 23,2 C 16,7 C 17,8 C 17,8 C 1,3 C 85 % 74 % 34 % 1001,9 hPa 0,0 l/m 0,0 km/h (0 Bft) O 90 0 min 14,0 C 17,8 C 0,0 km/h (0 Bft)
16.06.2016 19:25 16,4 C 23,2 C 16,7 C 17,7 C 17,7 C 1,3 C 85 % 74 % 34 % 1001,8 hPa 0,0 l/m 0,0 km/h (0 Bft) O 90 0 min 13,9 C 17,7 C 0,0 km/h (0 Bft)
16.06.2016 19:30 16,3 C 23,2 C 16,6 C 17,6 C 17,6 C 1,3 C 85 % 74 % 34 % 1001,8 hPa 0,0 l/m 0,0 km/h (0 Bft) W 270 0 min 13,8 C 17,6 C 0,0 km/h (0 Bft)
16.06.2016 19:35 16,4 C 23,2 C 16,6 C 17,6 C 17,6 C 1,2 C 85 % 74 % 32 % 1001,8 hPa 0,0 l/m 0,0 km/h (0 Bft) NW 315 0 min 13,9 C 17,6 C 0,0 km/h (0 Bft)
16.06.2016 19:40 16,5 C 23,2 C 16,6 C 17,6 C 17,6 C 1,1 C 85 % 74 % 29 % 1001,8 hPa 0,0 l/m 0,0 km/h (0 Bft) NW 315 0 min 14,0 C 17,6 C 0,0 km/h (0 Bft)
16.06.2016 19:45 16,4 C 23,2 C 16,7 C 17,5 C 17,5 C 1,1 C 85 % 74 % 29 % 1001,6 hPa 0,0 l/m 0,0 km/h (0 Bft) W-NW 292 0 min 13,9 C 17,5 C 0,0 km/h (0 Bft)
16.06.2016 19:50 16,5 C 23,2 C 16,6 C 17,4 C 17,4 C 0,9 C 85 % 74 % 24 % 1001,6 hPa 0,0 l/m 0,0 km/h (0 Bft) W-NW 292 0 min 14,0 C 17,4 C 0,0 km/h (0 Bft)
16.06.2016 19:55 16,3 C 23,2 C 16,6 C 17,2 C 17,2 C 0,9 C 85 % 74 % 24 % 1001,6 hPa 0,0 l/m 0,0 km/h (0 Bft) O-NO 67 0 min 13,8 C 17,2 C 0,0 km/h (0 Bft)
16.06.2016 20:00 16,3 C 23,2 C 16,6 C 17,1 C 17,1 C 0,8 C 85 % 74 % 21 % 1001,6 hPa 0,0 l/m 0,0 km/h (0 Bft) NO 45 0 min 13,8 C 17,1 C 0,0 km/h (0 Bft)
16.06.2016 20:05 16,2 C 23,2 C 16,7 C 17,0 C 17,0 C 0,8 C 85 % 74 % 21 % 1001,0 hPa 0,0 l/m 0,0 km/h (0 Bft) NW 315 0 min 13,7 C 17,0 C 1,9 km/h (1 Bft)
16.06.2016 20:10 16,1 C 23,2 C 16,7 C 17,0 C 17,0 C 0,9 C 85 % 73 % 24 % 1001,0 hPa 0,0 l/m 0,0 km/h (0 Bft) SW 225 0 min 13,6 C 17,0 C 0,0 km/h (0 Bft)
16.06.2016 20:15 16,2 C 23,2 C 16,7 C 16,9 C 16,9 C 0,7 C 85 % 73 % 18 % 1001,0 hPa 0,0 l/m 0,0 km/h (0 Bft) W 270 0 min 13,7 C 16,9 C 0,0 km/h (0 Bft)
16.06.2016 20:17 16,1 C 23,2 C 16,6 C 16,8 C 16,8 C 0,7 C 85 % 73 % 18 % 1001,0 hPa 0,0 l/m 0,0 km/h (0 Bft) N-NW 337 0 min 13,6 C 16,8 C 0,0 km/h (0 Bft)
16.06.2016 20:22 16,1 C 23,2 C 16,5 C 16,6 C 16,6 C 0,5 C 85 % 73 % 13 % 1001,0 hPa 0,0 l/m 0,0 km/h (0 Bft) O 90 0 min 13,6 C 16,6 C 0,0 km/h (0 Bft)
16.06.2016 20:27 16,0 C 23,2 C 16,5 C 16,4 C 16,4 C 0,4 C 85 % 73 % 11 % 1001,0 hPa 0,0 l/m 0,0 km/h (0 Bft) N-NO 22 0 min 13,5 C 16,4 C 0,0 km/h (0 Bft)
16.06.2016 20:32 15,8 C 23,2 C 16,3 C 16,3 C 16,3 C 0,5 C 85 % 73 % 13 % 1001,0 hPa 0,0 l/m 0,0 km/h (0 Bft) O 90 0 min 13,3 C 16,3 C 0,0 km/h (0 Bft)
16.06.2016 20:37 15,9 C 23,2 C 16,4 C 16,1 C 16,1 C 0,2 C 85 % 73 % 5 % 1001,0 hPa 0,0 l/m 0,0 km/h (0 Bft) O 90 0 min 13,4 C 16,1 C 0,0 km/h (0 Bft)
16.06.2016 20:42 15,7 C 23,2 C 16,3 C 16,0 C 16,0 C 0,3 C 85 % 73 % 8 % 1001,4 hPa 0,0 l/m 0,0 km/h (0 Bft) O 90 0 min 13,2 C 16,0 C 0,0 km/h (0 Bft)
16.06.2016 20:47 15,7 C 23,2 C 16,3 C 15,9 C 15,9 C 0,2 C 85 % 73 % 5 % 1001,4 hPa 0,0 l/m 0,0 km/h (0 Bft) O 90 0 min 13,2 C 15,9 C 0,0 km/h (0 Bft)
16.06.2016 20:52 15,5 C 23,2 C 16,1 C 15,7 C 15,7 C 0,2 C 85 % 73 % 5 % 1001,4 hPa 0,0 l/m 0,0 km/h (0 Bft) O 90 0 min 13,0 C 15,7 C 0,0 km/h (0 Bft)
16.06.2016 20:57 15,5 C 23,2 C 16,1 C 15,7 C 15,7 C 0,2 C 85 % 73 % 5 % 1001,4 hPa 0,0 l/m 0,0 km/h (0 Bft) O 90 0 min 13,0 C 15,7 C 0,0 km/h (0 Bft)
16.06.2016 21:02 15,5 C 23,2 C 16,1 C 15,6 C 15,6 C 0,1 C 86 % 73 % 3 % 1001,6 hPa 0,0 l/m 0,2 km/h (0 Bft) W 270 0 min 13,2 C 15,6 C 0,0 km/h (0 Bft)
16.06.2016 21:25 15,1 C 23,2 C 15,9 C 15,3 C 15,3 C 0,2 C 86 % 73 % 0 % 1001,9 hPa 0,0 l/m 0,5 km/h (0 Bft) O-NO 67 0 min 12,8 C 15,3 C 0,0 km/h (0 Bft)
16.06.2016 21:30 15,1 C 23,2 C 15,8 C 15,2 C 15,2 C 0,1 C 86 % 73 % 0 % 1001,9 hPa 0,0 l/m 0,2 km/h (0 Bft) O-SO 112 0 min 12,8 C 15,2 C 0,0 km/h (0 Bft)
16.06.2016 21:35 15,0 C 23,2 C 15,8 C 15,2 C 15,2 C 0,2 C 86 % 72 % 0 % 1001,9 hPa 0,0 l/m 0,0 km/h (0 Bft) S 180 0 min 12,7 C 15,2 C 0,0 km/h (0 Bft)
16.06.2016 21:50 14,8 C 23,2 C 15,8 C 15,2 C 15,2 C 0,4 C 87 % 72 % 0 % 1001,9 hPa 0,0 l/m 0,0 km/h (0 Bft) SO 135 0 min 12,7 C 15,2 C 0,0 km/h (0 Bft)
16.06.2016 21:51 14,8 C 23,2 C 15,8 C 15,2 C 15,2 C 0,4 C 87 % 72 % 0 % 1001,9 hPa 0,0 l/m 0,0 km/h (0 Bft) SO 135 0 min 12,7 C 15,2 C 0,0 km/h (0 Bft)
16.06.2016 21:52 14,8 C 23,2 C 15,8 C 15,2 C 15,2 C 0,4 C 87 % 72 % 0 % 1001,9 hPa 0,0 l/m 0,0 km/h (0 Bft) W 270 0 min 12,7 C 15,2 C 0,0 km/h (0 Bft)
16.06.2016 22:00 14,8 C 23,2 C 15,7 C 15,2 C 15,2 C 0,4 C 87 % 72 % 0 % 1001,9 hPa 0,0 l/m 0,0 km/h (0 Bft) O-NO 67 0 min 12,7 C 15,2 C 0,0 km/h (0 Bft)
16.06.2016 22:11 14,9 C 23,2 C 15,7 C 15,2 C 15,2 C 0,3 C 87 % 71 % 0 % 1001,6 hPa 0,0 l/m 0,2 km/h (0 Bft) NW 315 0 min 12,8 C 15,2 C 2,9 km/h (1 Bft)
16.06.2016 22:12 14,9 C 23,2 C 15,7 C 15,2 C 15,2 C 0,3 C 87 % 71 % 0 % 1001,6 hPa 0,0 l/m 0,2 km/h (0 Bft) NW 315 0 min 12,8 C 15,2 C 2,9 km/h (1 Bft)
16.06.2016 22:13 14,9 C 23,2 C 15,7 C 15,2 C 15,2 C 0,3 C 87 % 71 % 0 % 1001,6 hPa 0,0 l/m 0,2 km/h (0 Bft) NW 315 0 min 12,8 C 15,2 C 2,9 km/h (1 Bft)
16.06.2016 22:14 14,8 C 23,2 C 15,7 C 15,3 C 15,3 C 0,5 C 87 % 71 % 0 % 1001,6 hPa 0,0 l/m 0,2 km/h (0 Bft) NW 315 0 min 12,7 C 15,3 C 0,0 km/h (0 Bft)
16.06.2016 22:15 14,8 C 23,2 C 15,7 C 15,3 C 15,3 C 0,5 C 87 % 71 % 0 % 1001,6 hPa 0,0 l/m 0,2 km/h (0 Bft) NW 315 0 min 12,7 C 15,3 C 0,0 km/h (0 Bft)
16.06.2016 22:17 14,8 C 23,2 C 15,6 C 15,3 C 15,3 C 0,5 C 87 % 71 % 0 % 1001,6 hPa 0,0 l/m 0,2 km/h (0 Bft) O-NO 67 0 min 12,7 C 15,3 C 0,0 km/h (0 Bft)
16.06.2016 22:22 14,7 C 23,2 C 15,7 C 15,4 C 15,4 C 0,7 C 87 % 71 % 0 % 1001,5 hPa 0,0 l/m 0,3 km/h (0 Bft) O-NO 67 0 min 12,6 C 15,4 C 1,9 km/h (1 Bft)
16.06.2016 22:27 14,6 C 23,2 C 15,6 C 15,4 C 15,4 C 0,8 C 87 % 71 % 0 % 1001,5 hPa 0,0 l/m 0,8 km/h (0 Bft) NO 45 0 min 12,5 C 15,4 C 0,0 km/h (0 Bft)
16.06.2016 22:35 14,7 C 23,2 C 15,5 C 15,2 C 15,2 C 0,5 C 88 % 71 % 0 % 1001,5 hPa 0,0 l/m 0,6 km/h (0 Bft) O-SO 112 0 min 12,7 C 15,2 C 0,0 km/h (0 Bft)
16.06.2016 22:45 14,6 C 23,2 C 15,4 C 15,1 C 15,1 C 0,5 C 88 % 71 % 0 % 1001,0 hPa 0,0 l/m 0,2 km/h (0 Bft) NO 45 0 min 12,6 C 15,1 C 0,0 km/h (0 Bft)
16.06.2016 22:50 14,5 C 23,2 C 15,4 C 15,0 C 15,0 C 0,5 C 88 % 71 % 0 % 1001,0 hPa 0,0 l/m 0,0 km/h (0 Bft) NO 45 0 min 12,5 C 15,0 C 0,0 km/h (0 Bft)
16.06.2016 22:55 14,5 C 23,2 C 15,5 C 15,0 C 15,0 C 0,5 C 88 % 71 % 0 % 1001,0 hPa 0,0 l/m 0,0 km/h (0 Bft) SW 225 0 min 12,5 C 15,0 C 0,0 km/h (0 Bft)
16.06.2016 23:00 14,4 C 23,2 C 15,5 C 14,9 C 14,9 C 0,5 C 88 % 71 % 0 % 1001,0 hPa 0,0 l/m 0,0 km/h (0 Bft) SW 225 0 min 12,4 C 14,9 C 0,0 km/h (0 Bft)
16.06.2016 23:10 14,4 C 23,2 C 15,5 C 15,0 C 15,0 C 0,6 C 88 % 70 % 0 % 1001,3 hPa 0,0 l/m 0,0 km/h (0 Bft) SW 225 0 min 12,4 C 15,0 C 0,0 km/h (0 Bft)
16.06.2016 23:15 14,4 C 23,2 C 15,5 C 15,0 C 15,0 C 0,6 C 88 % 70 % 0 % 1001,3 hPa 0,0 l/m 0,0 km/h (0 Bft) SW 225 0 min 12,4 C 15,0 C 0,0 km/h (0 Bft)
16.06.2016 23:20 14,4 C 23,2 C 15,5 C 15,0 C 15,0 C 0,6 C 88 % 70 % 0 % 1001,3 hPa 0,0 l/m 0,0 km/h (0 Bft) S 180 0 min 12,4 C 15,0 C 0,0 km/h (0 Bft)
16.06.2016 23:25 14,5 C 23,2 C 15,6 C 15,0 C 15,0 C 0,5 C 88 % 70 % 0 % 1001,3 hPa 0,0 l/m 0,0 km/h (0 Bft) SW 225 0 min 12,5 C 15,0 C 0,0 km/h (0 Bft)
16.06.2016 23:30 14,5 C 23,2 C 15,6 C 15,0 C 15,0 C 0,5 C 88 % 70 % 0 % 1001,3 hPa 0,0 l/m 0,0 km/h (0 Bft) NW 315 0 min 12,5 C 15,0 C 0,0 km/h (0 Bft)
16.06.2016 23:35 14,5 C 23,2 C 15,6 C 15,1 C 15,1 C 0,6 C 88 % 70 % 0 % 1001,3 hPa 0,0 l/m 0,0 km/h (0 Bft) NW 315 0 min 12,5 C 15,1 C 0,0 km/h (0 Bft)
16.06.2016 23:40 14,6 C 23,2 C 15,6 C 15,0 C 15,0 C 0,4 C 89 % 70 % 0 % 1001,3 hPa 0,0 l/m 0,0 km/h (0 Bft) O-NO 67 0 min 12,8 C 15,0 C 0,0 km/h (0 Bft)
16.06.2016 23:45 14,5 C 23,2 C 15,6 C 15,0 C 15,0 C 0,5 C 89 % 70 % 0 % 1000,9 hPa 0,0 l/m 0,0 km/h (0 Bft) S 180 0 min 12,7 C 15,0 C 0,0 km/h (0 Bft)
16.06.2016 23:50 14,6 C 23,2 C 15,6 C 15,0 C 15,0 C 0,4 C 89 % 70 % 0 % 1000,9 hPa 0,0 l/m 0,0 km/h (0 Bft) O 90 0 min 12,8 C 15,0 C 0,0 km/h (0 Bft)
16.06.2016 23:55 14,6 C 23,2 C 15,6 C 15,0 C 15,0 C 0,4 C 89 % 70 % 0 % 1000,9 hPa 0,0 l/m 0,0 km/h (0 Bft) S 180 0 min 12,8 C 15,0 C 0,0 km/h (0 Bft)
_ Min-Zeit 05:25 08:45 05:15 05:10 05:05 00:15 13:15 13:25 00:00 23:45 - 00:00 - - - 05:25 05:05 00:00
Minimum _ 7,4 C 21,7 C 9,4 C 7,6 C 7,6 C 0,0 C 58 % 67 % 0 % 1000,9 hPa - 0,0 km/h (0 Bft) - - - 5,5 C 7,6 C 0,0 km/h (0 Bft)
_ Max-Zeit 14:05 19:15 13:15 08:55 08:55 08:15 07:40 03:05 07:10 16:45 16:45 10:30 - - 09:56 16:01 08:55 10:55
Maximum _ 21,5 C 23,2 C 19,7 C 30,3 C 30,3 C 13,4 C 93 % 90 % 100 % 1003,9 hPa 0,7 l/m 3,5 km/h
O-NO (1 Bft)
- - 21 min 15,2 C 30,3 C 6,4 km/h
NW (2 Bft)
Durchschnitt _ 15,1 C 22,6 C 15,0 C 17,4 C 17,2 C 2,3 C 79 % 81 % 36 % 1002,8 hPa #2,1 l/m 0,3 km/h (0 Bft) O-NO - #6:39 h 11,4 C 17,2 C 0,6 km/h (0 Bft)
2016 www.wetterstation-wechselburg.de